| time (UTC) | temp F | wind direction | speed knots | gust knots | rain 1hr in | rain 24hr in | rain mn in | humidity % | barometer mb |
| 20260507165848 | 66 | 0.0 | 0.0 | 0.00 | 0.00 | 0.00 | 67 | ||
| 20260507162659 | 66 | 0.0 | 0.0 | 0.00 | 0.00 | 0.00 | 61 | ||
| 20260507161622 | 67 | 0.0 | 0.0 | 0.00 | 0.00 | 0.00 | 62 | ||
| 20260507160545 | 67 | 0.0 | 0.0 | 0.00 | 0.00 | 0.00 | 59 | ||
| 20260507154432 | 68 | 0.0 | 0.0 | 0.00 | 0.00 | 0.00 | 53 | ||
| 20260507153355 | 68 | 0.0 | 0.0 | 0.00 | 0.00 | 0.00 | 52 | ||
| 20260507152316 | 68 | 0.0 | 0.0 | 0.00 | 0.00 | 0.00 | 47 | ||
| 20260507151239 | 70 | 0.0 | 0.0 | 0.00 | 0.00 | 0.00 | 49 | ||
| 20260507150200 | 70 | 0.0 | 0.0 | 0.00 | 0.00 | 0.00 | 48 | ||
| 20260507144044 | 72 | 0.0 | 0.0 | 0.00 | 0.00 | 0.00 | 48 | ||
| 20260507143005 | 74 | 0.0 | 0.0 | 0.00 | 0.00 | 0.00 | 46 | ||
| 20260507140848 | 74 | 0.0 | 0.0 | 0.00 | 0.00 | 0.00 | 46 | ||
| 20260507135809 | 75 | 0.0 | 0.0 | 0.00 | 0.00 | 0.00 | 45 | ||
| 20260507134729 | 78 | 0.0 | 0.0 | 0.00 | 0.00 | 0.00 | 43 | ||
| 20260507132608 | 81 | 0.0 | 0.0 | 0.00 | 0.00 | 0.00 | 42 | ||
| 20260507130447 | 83 | 0.0 | 0.0 | 0.00 | 0.00 | 0.00 | 41 | ||
| 20260507125406 | 83 | 0.0 | 0.0 | 0.00 | 0.00 | 0.00 | 40 | ||
| 20260507124324 | 84 | 0.0 | 0.0 | 0.00 | 0.00 | 0.00 | 39 | ||
| 20260507122201 | 84 | 0.0 | 0.0 | 0.00 | 0.00 | 0.00 | 39 | ||
| 20260507121119 | 84 | 0.0 | 0.0 | 0.00 | 0.00 | 0.00 | 33 | ||
| 20260507120036 | 85 | 0.0 | 0.0 | 0.00 | 0.00 | 0.00 | 31 | ||
| 20260507114953 | 84 | 0.0 | 0.0 | 0.00 | 0.00 | 0.00 | 33 | ||
| 20260507113911 | 83 | 0.0 | 0.0 | 0.00 | 0.00 | 0.00 | 34 | ||
| 20260507112829 | 82 | 0.0 | 0.0 | 0.00 | 0.00 | 0.00 | 34 | ||
| 20260507111745 | 82 | 0.0 | 0.0 | 0.00 | 0.00 | 0.00 | 35 | ||
| 20260507110703 | 83 | 0.0 | 0.0 | 0.00 | 0.00 | 0.00 | 36 | ||
| 20260507105618 | 83 | 0.0 | 0.0 | 0.00 | 0.00 | 0.00 | 35 | ||
| 20260507103453 | 81 | 0.0 | 0.0 | 0.00 | 0.00 | 0.00 | 36 | ||
| 20260507102409 | 83 | 0.0 | 0.0 | 0.00 | 0.00 | 0.00 | 35 | ||
| 20260507101325 | 82 | 0.0 | 0.0 | 0.00 | 0.00 | 0.00 | 34 | ||
| 20260507100242 | 81 | 0.0 | 0.0 | 0.00 | 0.00 | 0.00 | 36 | ||
| 20260507095158 | 82 | 0.0 | 0.0 | 0.00 | 0.00 | 0.00 | 36 | ||
| 20260507094115 | 81 | 0.0 | 0.0 | 0.00 | 0.00 | 0.00 | 37 | ||
| 20260507090903 | 80 | 0.0 | 0.0 | 0.00 | 0.00 | 0.00 | 37 | ||
| 20260507083653 | 78 | 0.0 | 0.0 | 0.00 | 0.00 | 0.00 | 40 | ||
| 20260507082609 | 77 | 0.0 | 0.0 | 0.00 | 0.00 | 0.00 | 42 | ||
| 20260507080444 | 71 | 0.0 | 0.0 | 0.00 | 0.00 | 0.00 | 55 | ||
| 20260507075403 | 73 | 0.0 | 0.0 | 0.00 | 0.00 | 0.00 | 52 | ||
| 20260507073240 | 70 | 0.0 | 0.0 | 0.00 | 0.00 | 0.00 | 56 | ||
| 20260507072159 | 69 | 0.0 | 0.0 | 0.00 | 0.00 | 0.00 | 60 | ||
| 20260507071118 | 67 | 0.0 | 0.0 | 0.00 | 0.00 | 0.00 | 67 | ||
| 20260507070038 | 65 | 0.0 | 0.0 | 0.00 | 0.00 | 0.00 | 70 | ||
| 20260507063920 | 61 | 0.0 | 0.0 | 0.00 | 0.00 | 0.00 | 81 | ||
| 20260507062842 | 59 | 0.0 | 0.0 | 0.00 | 0.00 | 0.00 | 83 | ||
| 20260507060729 | 56 | 0.0 | 0.0 | 0.00 | 0.00 | 0.00 | 95 | ||
| 20260507053544 | 51 | 0.0 | 0.0 | 0.00 | 0.00 | 0.00 | 97 | ||
| 20260507052511 | 49 | 0.0 | 0.0 | 0.00 | 0.00 | 0.00 | 96 | ||
| 20260507050405 | 46 | 0.0 | 0.0 | 0.00 | 0.00 | 0.00 | 96 | ||
| 20260507045332 | 45 | 0.0 | 0.0 | 0.00 | 0.00 | 0.00 | 96 | ||
| 20260507044300 | 44 | 0.0 | 0.0 | 0.00 | 0.00 | 0.00 | 95 | ||
| 20260507043228 | 44 | 0.0 | 0.0 | 0.00 | 0.00 | 0.00 | 95 | ||
| 20260507041123 | 44 | 0.0 | 0.0 | 0.00 | 0.00 | 0.00 | 95 | ||
| 20260507040051 | 44 | 0.0 | 0.0 | 0.00 | 0.00 | 0.00 | 95 | ||
| 20260507035019 | 44 | 0.0 | 0.0 | 0.00 | 0.00 | 0.00 | 95 | ||
| 20260507033947 | 43 | 0.0 | 0.0 | 0.00 | 0.00 | 0.00 | 95 | ||
| 20260507030810 | 44 | 0.0 | 0.0 | 0.00 | 0.00 | 0.00 | 94 | ||
| 20260507022602 | 44 | 0.0 | 0.0 | 0.00 | 0.00 | 0.00 | 94 | ||
| 20260507021531 | 44 | 0.0 | 0.0 | 0.00 | 0.00 | 0.00 | 94 | ||
| 20260507015427 | 45 | 0.0 | 0.0 | 0.00 | 0.00 | 0.00 | 94 | ||
| 20260507014353 | 45 | 0.0 | 0.0 | 0.00 | 0.00 | 0.00 | 94 | ||
| 20260507013321 | 45 | 0.0 | 0.0 | 0.00 | 0.00 | 0.00 | 94 | ||
| 20260507011216 | 45 | 0.0 | 0.0 | 0.00 | 0.00 | 0.00 | 93 | ||
| 20260507010144 | 45 | 0.0 | 0.0 | 0.00 | 0.00 | 0.00 | 93 | ||
| 20260507005112 | 45 | 0.0 | 0.0 | 0.00 | 0.00 | 0.00 | 94 | ||
| 20260507004039 | 46 | 0.0 | 0.0 | 0.00 | 0.00 | 0.00 | 93 | ||
| 20260507003007 | 46 | 0.0 | 0.0 | 0.00 | 0.00 | 0.00 | 93 | ||
| 20260507001935 | 46 | 0.0 | 0.0 | 0.00 | 0.00 | 0.00 | 93 | ||
| 20260507000902 | 46 | 0.0 | 0.0 | 0.00 | 0.00 | 0.00 | 93 | ||
| 20260506235830 | 47 | 0.0 | 0.0 | 0.00 | 0.00 | 0.00 | 93 | ||
| 20260506234757 | 47 | 0.0 | 0.0 | 0.00 | 0.00 | 0.00 | 93 | ||
| 20260506233724 | 47 | 0.0 | 0.0 | 0.00 | 0.00 | 0.00 | 93 | ||
| 20260506232650 | 47 | 0.0 | 0.0 | 0.00 | 0.00 | 0.00 | 93 | ||
| 20260506231618 | 47 | 0.0 | 0.0 | 0.00 | 0.00 | 0.00 | 92 | ||
| 20260506230544 | 48 | 0.0 | 0.0 | 0.00 | 0.00 | 0.00 | 92 | ||
| 20260506225510 | 48 | 0.0 | 0.0 | 0.00 | 0.00 | 0.00 | 92 | ||
| 20260506224437 | 49 | 0.0 | 0.0 | 0.00 | 0.00 | 0.00 | 92 | ||
| 20260506223403 | 50 | 0.0 | 0.0 | 0.00 | 0.00 | 0.00 | 92 | ||
| 20260506222331 | 50 | 0.0 | 0.0 | 0.00 | 0.00 | 0.00 | 92 | ||
| 20260506221255 | 51 | 0.0 | 0.0 | 0.00 | 0.00 | 0.00 | 92 | ||
| 20260506220221 | 51 | 0.0 | 0.0 | 0.00 | 0.00 | 0.00 | 93 | ||
| 20260506215147 | 50 | 0.0 | 0.0 | 0.00 | 0.00 | 0.00 | 93 | ||
| 20260506214114 | 49 | 0.0 | 0.0 | 0.00 | 0.00 | 0.00 | 91 | ||
| 20260506213040 | 49 | 0.0 | 0.0 | 0.00 | 0.00 | 0.00 | 90 | ||
| 20260506212006 | 50 | 0.0 | 0.0 | 0.00 | 0.00 | 0.00 | 90 | ||
| 20260506210932 | 50 | 0.0 | 0.0 | 0.00 | 0.00 | 0.00 | 90 | ||
| 20260506205858 | 51 | 0.0 | 0.0 | 0.00 | 0.00 | 0.00 | 90 | ||
| 20260506204824 | 51 | 0.0 | 0.0 | 0.00 | 0.00 | 0.00 | 90 | ||
| 20260506203751 | 51 | 0.0 | 0.0 | 0.00 | 0.00 | 0.00 | 90 | ||
| 20260506201642 | 51 | 0.0 | 0.0 | 0.00 | 0.00 | 0.00 | 89 | ||
| 20260506200608 | 51 | 0.0 | 0.0 | 0.00 | 0.00 | 0.00 | 89 | ||
| 20260506195534 | 52 | 0.0 | 0.0 | 0.00 | 0.00 | 0.00 | 88 | ||
| 20260506194501 | 52 | 0.0 | 0.0 | 0.00 | 0.00 | 0.00 | 88 | ||
| 20260506193426 | 53 | 0.0 | 0.0 | 0.00 | 0.00 | 0.00 | 87 | ||
| 20260506192352 | 53 | 0.0 | 0.0 | 0.00 | 0.00 | 0.00 | 87 | ||
| 20260506191319 | 54 | 0.0 | 0.0 | 0.00 | 0.00 | 0.00 | 86 | ||
| 20260506190244 | 55 | 0.0 | 0.0 | 0.00 | 0.00 | 0.00 | 85 | ||
| 20260506185210 | 55 | 0.0 | 0.0 | 0.00 | 0.00 | 0.00 | 84 | ||
| 20260506184136 | 57 | 0.0 | 0.0 | 0.00 | 0.00 | 0.00 | 84 | ||
| 20260506183102 | 58 | 0.0 | 0.0 | 0.00 | 0.00 | 0.00 | 82 | ||
| 20260506182028 | 59 | 0.0 | 0.0 | 0.00 | 0.00 | 0.00 | 82 | ||
| 20260506180952 | 61 | 0.0 | 0.0 | 0.00 | 0.00 | 0.00 | 81 | ||
| 20260506175917 | 61 | 0.0 | 0.0 | 0.00 | 0.00 | 0.00 | 79 | ||
| 20260506173805 | 63 | 0.0 | 0.0 | 0.00 | 0.00 | 0.00 | 76 | ||
| 20260506172729 | 63 | 0.0 | 0.0 | 0.00 | 0.00 | 0.00 | 74 | ||
| 20260506171652 | 64 | 0.0 | 0.0 | 0.00 | 0.00 | 0.00 | 73 | ||
| 20260506170616 | 65 | 0.0 | 0.0 | 0.00 | 0.00 | 0.00 | 71 |